sensor_id;sensor_type;location;lat;lon;timestamp;P1;durP1;ratioP1;P2;durP2;ratioP2
58306;SDS011;44116;50.884;4.768;2023-05-07T00:00:43;8.5;;;5.3;;
58306;SDS011;44116;50.884;4.768;2023-05-07T00:02:43;8.9;;;5.8;;
58306;SDS011;44116;50.884;4.768;2023-05-07T00:04:42;9.5;;;5.1;;
58306;SDS011;44116;50.884;4.768;2023-05-07T00:06:42;7.4;;;5.4;;
58306;SDS011;44116;50.884;4.768;2023-05-07T00:08:42;9.3;;;6.3;;
58306;SDS011;44116;50.884;4.768;2023-05-07T00:10:42;7.5;;;5.7;;
58306;SDS011;44116;50.884;4.768;2023-05-07T00:12:42;8.9;;;6.2;;
58306;SDS011;44116;50.884;4.768;2023-05-07T00:14:42;8.0;;;5.7;;
58306;SDS011;44116;50.884;4.768;2023-05-07T00:16:42;9.1;;;5.6;;
58306;SDS011;44116;50.884;4.768;2023-05-07T00:18:41;9.4;;;5.4;;
58306;SDS011;44116;50.884;4.768;2023-05-07T00:22:41;8.0;;;5.5;;
58306;SDS011;44116;50.884;4.768;2023-05-07T00:24:41;7.2;;;5.2;;
58306;SDS011;44116;50.884;4.768;2023-05-07T00:26:41;6.4;;;5.3;;
58306;SDS011;44116;50.884;4.768;2023-05-07T00:28:41;8.3;;;5.7;;
58306;SDS011;44116;50.884;4.768;2023-05-07T00:30:40;6.9;;;5.2;;
58306;SDS011;44116;50.884;4.768;2023-05-07T00:32:40;6.8;;;5.3;;
58306;SDS011;44116;50.884;4.768;2023-05-07T00:34:40;7.8;;;5.8;;
58306;SDS011;44116;50.884;4.768;2023-05-07T00:36:40;9.0;;;6.4;;
58306;SDS011;44116;50.884;4.768;2023-05-07T00:42:40;10.4;;;6.3;;
58306;SDS011;44116;50.884;4.768;2023-05-07T00:44:40;7.5;;;5.7;;
58306;SDS011;44116;50.884;4.768;2023-05-07T00:48:39;7.3;;;6.1;;
58306;SDS011;44116;50.884;4.768;2023-05-07T00:50:39;8.3;;;5.4;;
58306;SDS011;44116;50.884;4.768;2023-05-07T00:52:39;7.7;;;5.6;;
58306;SDS011;44116;50.884;4.768;2023-05-07T00:54:40;7.9;;;5.8;;
58306;SDS011;44116;50.884;4.768;2023-05-07T00:56:39;8.1;;;5.7;;
58306;SDS011;44116;50.884;4.768;2023-05-07T00:58:38;6.5;;;5.8;;
58306;SDS011;44116;50.884;4.768;2023-05-07T01:00:52;9.2;;;6.1;;
58306;SDS011;44116;50.884;4.768;2023-05-07T01:02:39;10.8;;;6.5;;
58306;SDS011;44116;50.884;4.768;2023-05-07T01:04:38;7.9;;;6.3;;
58306;SDS011;44116;50.884;4.768;2023-05-07T01:06:38;9.3;;;6.0;;
58306;SDS011;44116;50.884;4.768;2023-05-07T01:08:38;7.7;;;6.3;;
58306;SDS011;44116;50.884;4.768;2023-05-07T01:10:38;7.8;;;5.9;;
58306;SDS011;44116;50.884;4.768;2023-05-07T01:14:37;10.5;;;6.3;;
58306;SDS011;44116;50.884;4.768;2023-05-07T01:16:37;9.0;;;7.1;;
58306;SDS011;44116;50.884;4.768;2023-05-07T01:18:37;9.1;;;7.4;;
58306;SDS011;44116;50.884;4.768;2023-05-07T01:20:37;10.9;;;6.9;;
58306;SDS011;44116;50.884;4.768;2023-05-07T01:22:38;10.6;;;6.6;;
58306;SDS011;44116;50.884;4.768;2023-05-07T01:24:37;10.0;;;7.2;;
58306;SDS011;44116;50.884;4.768;2023-05-07T01:26:37;9.1;;;6.6;;
58306;SDS011;44116;50.884;4.768;2023-05-07T01:30:45;9.6;;;6.3;;
58306;SDS011;44116;50.884;4.768;2023-05-07T01:34:36;9.4;;;6.6;;
58306;SDS011;44116;50.884;4.768;2023-05-07T01:36:37;8.5;;;6.8;;
58306;SDS011;44116;50.884;4.768;2023-05-07T01:38:37;9.8;;;6.5;;
58306;SDS011;44116;50.884;4.768;2023-05-07T01:40:36;8.9;;;6.4;;
58306;SDS011;44116;50.884;4.768;2023-05-07T01:42:35;8.7;;;6.9;;
58306;SDS011;44116;50.884;4.768;2023-05-07T01:44:35;10.1;;;6.5;;
58306;SDS011;44116;50.884;4.768;2023-05-07T01:46:35;9.4;;;6.9;;
58306;SDS011;44116;50.884;4.768;2023-05-07T01:48:35;8.7;;;6.5;;
58306;SDS011;44116;50.884;4.768;2023-05-07T01:50:36;9.3;;;6.8;;
58306;SDS011;44116;50.884;4.768;2023-05-07T01:56:34;8.7;;;7.6;;
58306;SDS011;44116;50.884;4.768;2023-05-07T01:58:34;9.6;;;6.9;;
58306;SDS011;44116;50.884;4.768;2023-05-07T02:00:34;11.6;;;7.1;;
58306;SDS011;44116;50.884;4.768;2023-05-07T02:02:34;9.4;;;6.8;;
58306;SDS011;44116;50.884;4.768;2023-05-07T02:04:33;9.4;;;6.7;;
58306;SDS011;44116;50.884;4.768;2023-05-07T02:06:33;9.6;;;6.8;;
58306;SDS011;44116;50.884;4.768;2023-05-07T02:08:33;12.4;;;6.9;;
58306;SDS011;44116;50.884;4.768;2023-05-07T02:10:33;10.0;;;7.0;;
58306;SDS011;44116;50.884;4.768;2023-05-07T02:12:33;9.8;;;6.9;;
58306;SDS011;44116;50.884;4.768;2023-05-07T02:14:33;10.3;;;7.5;;
58306;SDS011;44116;50.884;4.768;2023-05-07T02:16:32;10.8;;;7.9;;
58306;SDS011;44116;50.884;4.768;2023-05-07T02:20:32;10.2;;;7.7;;
58306;SDS011;44116;50.884;4.768;2023-05-07T02:22:32;12.0;;;7.2;;
58306;SDS011;44116;50.884;4.768;2023-05-07T02:24:32;8.9;;;6.7;;
58306;SDS011;44116;50.884;4.768;2023-05-07T02:26:32;9.5;;;7.7;;
58306;SDS011;44116;50.884;4.768;2023-05-07T02:28:31;11.0;;;8.0;;
58306;SDS011;44116;50.884;4.768;2023-05-07T02:30:31;7.8;;;7.0;;
58306;SDS011;44116;50.884;4.768;2023-05-07T02:32:31;9.2;;;7.3;;
58306;SDS011;44116;50.884;4.768;2023-05-07T02:34:31;8.9;;;6.8;;
58306;SDS011;44116;50.884;4.768;2023-05-07T02:36:31;10.1;;;6.9;;
58306;SDS011;44116;50.884;4.768;2023-05-07T02:38:31;10.3;;;7.5;;
58306;SDS011;44116;50.884;4.768;2023-05-07T02:40:30;9.2;;;7.1;;
58306;SDS011;44116;50.884;4.768;2023-05-07T02:42:30;9.5;;;8.1;;
58306;SDS011;44116;50.884;4.768;2023-05-07T02:44:30;11.2;;;7.0;;
58306;SDS011;44116;50.884;4.768;2023-05-07T02:46:30;11.6;;;7.7;;
58306;SDS011;44116;50.884;4.768;2023-05-07T02:48:30;10.1;;;7.6;;
58306;SDS011;44116;50.884;4.768;2023-05-07T02:50:30;10.3;;;7.7;;
58306;SDS011;44116;50.884;4.768;2023-05-07T02:52:30;10.1;;;7.5;;
58306;SDS011;44116;50.884;4.768;2023-05-07T02:54:29;9.5;;;7.2;;
58306;SDS011;44116;50.884;4.768;2023-05-07T02:56:29;10.1;;;7.1;;
58306;SDS011;44116;50.884;4.768;2023-05-07T02:58:29;10.1;;;6.7;;
58306;SDS011;44116;50.884;4.768;2023-05-07T03:00:29;9.1;;;7.2;;
58306;SDS011;44116;50.884;4.768;2023-05-07T03:02:29;9.7;;;6.5;;
58306;SDS011;44116;50.884;4.768;2023-05-07T03:04:29;9.5;;;7.0;;
58306;SDS011;44116;50.884;4.768;2023-05-07T03:06:29;9.1;;;6.6;;
58306;SDS011;44116;50.884;4.768;2023-05-07T03:08:28;9.7;;;7.2;;
58306;SDS011;44116;50.884;4.768;2023-05-07T03:10:28;11.4;;;7.8;;
58306;SDS011;44116;50.884;4.768;2023-05-07T03:12:28;10.0;;;7.5;;
58306;SDS011;44116;50.884;4.768;2023-05-07T03:14:28;10.9;;;7.4;;
58306;SDS011;44116;50.884;4.768;2023-05-07T03:16:28;9.6;;;7.8;;
58306;SDS011;44116;50.884;4.768;2023-05-07T03:18:27;11.1;;;8.0;;
58306;SDS011;44116;50.884;4.768;2023-05-07T03:20:27;9.9;;;8.1;;
58306;SDS011;44116;50.884;4.768;2023-05-07T03:22:27;10.0;;;7.7;;
58306;SDS011;44116;50.884;4.768;2023-05-07T03:24:27;9.7;;;7.9;;
58306;SDS011;44116;50.884;4.768;2023-05-07T03:26:27;9.7;;;7.5;;
58306;SDS011;44116;50.884;4.768;2023-05-07T03:28:27;12.0;;;7.8;;
58306;SDS011;44116;50.884;4.768;2023-05-07T03:30:27;10.4;;;7.7;;
58306;SDS011;44116;50.884;4.768;2023-05-07T03:32:26;10.6;;;8.1;;
58306;SDS011;44116;50.884;4.768;2023-05-07T03:34:26;9.7;;;7.8;;
58306;SDS011;44116;50.884;4.768;2023-05-07T03:36:26;11.0;;;8.2;;
58306;SDS011;44116;50.884;4.768;2023-05-07T03:38:26;10.5;;;8.1;;
58306;SDS011;44116;50.884;4.768;2023-05-07T03:40:26;12.0;;;8.7;;
58306;SDS011;44116;50.884;4.768;2023-05-07T03:42:25;10.5;;;8.3;;
58306;SDS011;44116;50.884;4.768;2023-05-07T03:44:25;13.4;;;9.0;;
58306;SDS011;44116;50.884;4.768;2023-05-07T03:46:25;14.5;;;9.5;;
58306;SDS011;44116;50.884;4.768;2023-05-07T03:48:25;12.5;;;9.4;;
58306;SDS011;44116;50.884;4.768;2023-05-07T03:50:25;12.5;;;9.3;;
58306;SDS011;44116;50.884;4.768;2023-05-07T03:52:25;10.7;;;8.7;;
58306;SDS011;44116;50.884;4.768;2023-05-07T03:54:25;10.4;;;8.6;;
58306;SDS011;44116;50.884;4.768;2023-05-07T03:56:24;10.7;;;9.2;;
58306;SDS011;44116;50.884;4.768;2023-05-07T03:58:24;11.4;;;9.6;;
58306;SDS011;44116;50.884;4.768;2023-05-07T04:00:24;12.6;;;9.0;;
58306;SDS011;44116;50.884;4.768;2023-05-07T04:02:24;13.7;;;10.3;;
58306;SDS011;44116;50.884;4.768;2023-05-07T04:04:24;11.4;;;9.7;;
58306;SDS011;44116;50.884;4.768;2023-05-07T04:06:24;11.5;;;9.8;;
58306;SDS011;44116;50.884;4.768;2023-05-07T04:10:23;13.3;;;9.9;;
58306;SDS011;44116;50.884;4.768;2023-05-07T04:14:23;11.2;;;9.6;;
58306;SDS011;44116;50.884;4.768;2023-05-07T04:16:23;15.0;;;10.5;;
58306;SDS011;44116;50.884;4.768;2023-05-07T04:18:23;13.2;;;9.9;;
58306;SDS011;44116;50.884;4.768;2023-05-07T04:20:23;11.9;;;9.6;;
58306;SDS011;44116;50.884;4.768;2023-05-07T04:22:22;14.2;;;9.9;;
58306;SDS011;44116;50.884;4.768;2023-05-07T04:24:22;12.4;;;9.8;;
58306;SDS011;44116;50.884;4.768;2023-05-07T04:28:22;12.8;;;10.1;;
58306;SDS011;44116;50.884;4.768;2023-05-07T04:30:22;12.9;;;10.2;;
58306;SDS011;44116;50.884;4.768;2023-05-07T04:34:22;12.1;;;10.4;;
58306;SDS011;44116;50.884;4.768;2023-05-07T04:36:22;14.2;;;10.3;;
58306;SDS011;44116;50.884;4.768;2023-05-07T04:38:21;14.0;;;10.7;;
58306;SDS011;44116;50.884;4.768;2023-05-07T04:40:21;13.6;;;10.6;;
58306;SDS011;44116;50.884;4.768;2023-05-07T04:44:21;15.3;;;10.9;;
58306;SDS011;44116;50.884;4.768;2023-05-07T04:46:21;13.6;;;9.6;;
58306;SDS011;44116;50.884;4.768;2023-05-07T04:48:20;12.4;;;10.3;;
58306;SDS011;44116;50.884;4.768;2023-05-07T04:52:20;16.4;;;10.7;;
58306;SDS011;44116;50.884;4.768;2023-05-07T04:54:20;14.0;;;10.6;;
58306;SDS011;44116;50.884;4.768;2023-05-07T04:56:20;15.4;;;11.2;;
58306;SDS011;44116;50.884;4.768;2023-05-07T04:58:20;13.5;;;10.8;;
58306;SDS011;44116;50.884;4.768;2023-05-07T05:00:20;15.1;;;10.3;;
58306;SDS011;44116;50.884;4.768;2023-05-07T05:02:19;13.3;;;10.6;;
58306;SDS011;44116;50.884;4.768;2023-05-07T05:04:19;13.8;;;10.1;;
58306;SDS011;44116;50.884;4.768;2023-05-07T05:06:19;13.6;;;10.6;;
58306;SDS011;44116;50.884;4.768;2023-05-07T05:08:19;15.0;;;11.0;;
58306;SDS011;44116;50.884;4.768;2023-05-07T05:14:19;12.4;;;10.2;;
58306;SDS011;44116;50.884;4.768;2023-05-07T05:16:18;13.1;;;10.5;;
58306;SDS011;44116;50.884;4.768;2023-05-07T05:18:18;15.1;;;10.8;;
58306;SDS011;44116;50.884;4.768;2023-05-07T05:20:18;14.6;;;11.1;;
58306;SDS011;44116;50.884;4.768;2023-05-07T05:22:18;12.3;;;10.5;;
58306;SDS011;44116;50.884;4.768;2023-05-07T05:24:18;12.4;;;10.9;;
58306;SDS011;44116;50.884;4.768;2023-05-07T05:26:18;13.1;;;11.0;;
58306;SDS011;44116;50.884;4.768;2023-05-07T05:28:17;13.0;;;11.2;;
58306;SDS011;44116;50.884;4.768;2023-05-07T05:30:17;13.0;;;10.9;;
58306;SDS011;44116;50.884;4.768;2023-05-07T05:32:17;12.9;;;11.2;;
58306;SDS011;44116;50.884;4.768;2023-05-07T05:34:17;14.3;;;11.9;;
58306;SDS011;44116;50.884;4.768;2023-05-07T05:36:17;15.9;;;12.2;;
58306;SDS011;44116;50.884;4.768;2023-05-07T05:38:17;17.0;;;11.9;;
58306;SDS011;44116;50.884;4.768;2023-05-07T05:40:17;15.9;;;11.8;;
58306;SDS011;44116;50.884;4.768;2023-05-07T05:42:16;14.5;;;12.0;;
58306;SDS011;44116;50.884;4.768;2023-05-07T05:44:16;16.9;;;12.4;;
58306;SDS011;44116;50.884;4.768;2023-05-07T05:46:18;13.3;;;11.9;;
58306;SDS011;44116;50.884;4.768;2023-05-07T05:48:16;14.3;;;12.0;;
58306;SDS011;44116;50.884;4.768;2023-05-07T05:50:16;14.5;;;11.5;;
58306;SDS011;44116;50.884;4.768;2023-05-07T05:52:16;14.5;;;11.8;;
58306;SDS011;44116;50.884;4.768;2023-05-07T05:54:16;14.6;;;11.6;;
58306;SDS011;44116;50.884;4.768;2023-05-07T05:56:16;15.7;;;11.2;;
58306;SDS011;44116;50.884;4.768;2023-05-07T05:58:15;15.5;;;10.7;;
58306;SDS011;44116;50.884;4.768;2023-05-07T06:00:16;16.4;;;11.1;;
58306;SDS011;44116;50.884;4.768;2023-05-07T06:02:15;16.2;;;10.8;;
58306;SDS011;44116;50.884;4.768;2023-05-07T06:04:15;14.9;;;11.1;;
58306;SDS011;44116;50.884;4.768;2023-05-07T06:08:15;14.7;;;11.0;;
58306;SDS011;44116;50.884;4.768;2023-05-07T06:10:14;14.3;;;10.2;;
58306;SDS011;44116;50.884;4.768;2023-05-07T06:12:14;14.6;;;10.9;;
58306;SDS011;44116;50.884;4.768;2023-05-07T06:14:14;15.0;;;10.4;;
58306;SDS011;44116;50.884;4.768;2023-05-07T06:18:14;15.1;;;10.7;;
58306;SDS011;44116;50.884;4.768;2023-05-07T06:20:14;13.3;;;10.1;;
58306;SDS011;44116;50.884;4.768;2023-05-07T06:22:14;13.7;;;10.4;;
58306;SDS011;44116;50.884;4.768;2023-05-07T06:24:14;16.6;;;10.8;;
58306;SDS011;44116;50.884;4.768;2023-05-07T06:26:14;16.8;;;10.6;;
58306;SDS011;44116;50.884;4.768;2023-05-07T06:28:13;17.9;;;10.7;;
58306;SDS011;44116;50.884;4.768;2023-05-07T06:30:13;13.8;;;9.9;;
58306;SDS011;44116;50.884;4.768;2023-05-07T06:32:15;15.5;;;9.6;;
58306;SDS011;44116;50.884;4.768;2023-05-07T06:34:13;14.1;;;9.5;;
58306;SDS011;44116;50.884;4.768;2023-05-07T06:36:13;16.4;;;9.7;;
58306;SDS011;44116;50.884;4.768;2023-05-07T06:38:13;14.1;;;9.6;;
58306;SDS011;44116;50.884;4.768;2023-05-07T06:40:12;13.9;;;9.5;;
58306;SDS011;44116;50.884;4.768;2023-05-07T06:42:12;13.5;;;8.9;;
58306;SDS011;44116;50.884;4.768;2023-05-07T06:44:12;14.7;;;8.6;;
58306;SDS011;44116;50.884;4.768;2023-05-07T06:46:12;12.3;;;9.0;;
58306;SDS011;44116;50.884;4.768;2023-05-07T06:48:12;13.6;;;8.4;;
58306;SDS011;44116;50.884;4.768;2023-05-07T06:50:12;11.8;;;8.5;;
58306;SDS011;44116;50.884;4.768;2023-05-07T06:52:12;16.2;;;9.2;;
58306;SDS011;44116;50.884;4.768;2023-05-07T06:54:12;14.7;;;8.8;;
58306;SDS011;44116;50.884;4.768;2023-05-07T06:56:11;18.2;;;9.8;;
58306;SDS011;44116;50.884;4.768;2023-05-07T06:58:11;14.3;;;9.2;;
58306;SDS011;44116;50.884;4.768;2023-05-07T07:00:12;13.9;;;8.9;;
58306;SDS011;44116;50.884;4.768;2023-05-07T07:02:11;14.8;;;8.7;;
58306;SDS011;44116;50.884;4.768;2023-05-07T07:04:11;15.6;;;7.8;;
58306;SDS011;44116;50.884;4.768;2023-05-07T07:06:11;15.2;;;7.9;;
58306;SDS011;44116;50.884;4.768;2023-05-07T07:08:11;14.2;;;7.2;;
58306;SDS011;44116;50.884;4.768;2023-05-07T07:10:11;15.6;;;7.1;;
58306;SDS011;44116;50.884;4.768;2023-05-07T07:12:10;12.6;;;6.7;;
58306;SDS011;44116;50.884;4.768;2023-05-07T07:14:10;11.9;;;6.3;;
58306;SDS011;44116;50.884;4.768;2023-05-07T07:16:10;12.2;;;5.3;;
58306;SDS011;44116;50.884;4.768;2023-05-07T07:18:10;11.3;;;5.1;;
58306;SDS011;44116;50.884;4.768;2023-05-07T07:20:10;9.2;;;5.2;;
58306;SDS011;44116;50.884;4.768;2023-05-07T07:22:10;12.6;;;5.0;;
58306;SDS011;44116;50.884;4.768;2023-05-07T07:24:10;12.5;;;5.5;;
58306;SDS011;44116;50.884;4.768;2023-05-07T07:28:10;13.4;;;5.4;;
58306;SDS011;44116;50.884;4.768;2023-05-07T07:30:09;11.4;;;5.7;;
58306;SDS011;44116;50.884;4.768;2023-05-07T07:32:09;11.3;;;5.2;;
58306;SDS011;44116;50.884;4.768;2023-05-07T07:36:09;11.1;;;5.3;;
58306;SDS011;44116;50.884;4.768;2023-05-07T07:38:09;20.0;;;5.5;;
58306;SDS011;44116;50.884;4.768;2023-05-07T07:40:09;11.7;;;5.1;;
58306;SDS011;44116;50.884;4.768;2023-05-07T07:44:08;10.7;;;4.9;;
58306;SDS011;44116;50.884;4.768;2023-05-07T07:46:08;11.8;;;5.2;;
58306;SDS011;44116;50.884;4.768;2023-05-07T07:48:08;10.1;;;4.7;;
58306;SDS011;44116;50.884;4.768;2023-05-07T07:50:09;10.6;;;4.3;;
58306;SDS011;44116;50.884;4.768;2023-05-07T07:52:08;11.4;;;4.2;;
58306;SDS011;44116;50.884;4.768;2023-05-07T07:54:08;8.7;;;4.1;;
58306;SDS011;44116;50.884;4.768;2023-05-07T07:58:08;11.3;;;4.8;;
58306;SDS011;44116;50.884;4.768;2023-05-07T08:00:08;9.6;;;3.8;;
58306;SDS011;44116;50.884;4.768;2023-05-07T08:02:07;11.7;;;4.7;;
58306;SDS011;44116;50.884;4.768;2023-05-07T08:04:07;10.1;;;4.2;;
58306;SDS011;44116;50.884;4.768;2023-05-07T08:06:07;10.0;;;4.8;;
58306;SDS011;44116;50.884;4.768;2023-05-07T08:08:07;11.4;;;4.6;;
58306;SDS011;44116;50.884;4.768;2023-05-07T08:10:07;11.9;;;4.8;;
58306;SDS011;44116;50.884;4.768;2023-05-07T08:12:07;12.0;;;5.0;;
58306;SDS011;44116;50.884;4.768;2023-05-07T08:14:06;10.4;;;5.2;;
58306;SDS011;44116;50.884;4.768;2023-05-07T08:16:07;12.0;;;5.1;;
58306;SDS011;44116;50.884;4.768;2023-05-07T08:18:06;13.1;;;5.3;;
58306;SDS011;44116;50.884;4.768;2023-05-07T08:20:07;11.2;;;5.2;;
58306;SDS011;44116;50.884;4.768;2023-05-07T08:22:06;16.3;;;5.5;;
58306;SDS011;44116;50.884;4.768;2023-05-07T08:24:06;11.5;;;5.2;;
58306;SDS011;44116;50.884;4.768;2023-05-07T08:26:07;9.5;;;4.6;;
58306;SDS011;44116;50.884;4.768;2023-05-07T08:28:06;11.3;;;4.8;;
58306;SDS011;44116;50.884;4.768;2023-05-07T08:32:05;10.8;;;4.4;;
58306;SDS011;44116;50.884;4.768;2023-05-07T08:34:05;10.6;;;4.2;;
58306;SDS011;44116;50.884;4.768;2023-05-07T08:36:05;10.3;;;4.0;;
58306;SDS011;44116;50.884;4.768;2023-05-07T08:38:05;8.6;;;3.8;;
58306;SDS011;44116;50.884;4.768;2023-05-07T08:40:06;8.9;;;3.6;;
58306;SDS011;44116;50.884;4.768;2023-05-07T08:42:06;12.3;;;4.0;;
58306;SDS011;44116;50.884;4.768;2023-05-07T08:44:06;9.5;;;3.7;;
58306;SDS011;44116;50.884;4.768;2023-05-07T08:46:05;7.5;;;3.8;;
58306;SDS011;44116;50.884;4.768;2023-05-07T08:48:09;10.8;;;4.0;;
58306;SDS011;44116;50.884;4.768;2023-05-07T08:52:05;6.4;;;3.4;;
58306;SDS011;44116;50.884;4.768;2023-05-07T08:54:05;9.4;;;4.0;;
58306;SDS011;44116;50.884;4.768;2023-05-07T08:56:04;8.2;;;3.8;;
58306;SDS011;44116;50.884;4.768;2023-05-07T08:58:04;9.1;;;4.1;;
58306;SDS011;44116;50.884;4.768;2023-05-07T09:00:05;8.1;;;3.9;;
58306;SDS011;44116;50.884;4.768;2023-05-07T09:02:05;10.8;;;4.3;;
58306;SDS011;44116;50.884;4.768;2023-05-07T09:04:04;10.7;;;4.6;;
58306;SDS011;44116;50.884;4.768;2023-05-07T09:06:04;8.4;;;4.1;;
58306;SDS011;44116;50.884;4.768;2023-05-07T09:12:03;9.1;;;3.9;;
58306;SDS011;44116;50.884;4.768;2023-05-07T09:14:03;8.8;;;4.1;;
58306;SDS011;44116;50.884;4.768;2023-05-07T09:16:11;6.4;;;3.4;;
58306;SDS011;44116;50.884;4.768;2023-05-07T09:22:05;8.4;;;3.3;;
58306;SDS011;44116;50.884;4.768;2023-05-07T09:24:03;8.8;;;3.8;;
58306;SDS011;44116;50.884;4.768;2023-05-07T09:26:03;6.4;;;2.9;;
58306;SDS011;44116;50.884;4.768;2023-05-07T09:28:04;8.2;;;3.3;;
58306;SDS011;44116;50.884;4.768;2023-05-07T09:34:04;9.0;;;3.6;;
58306;SDS011;44116;50.884;4.768;2023-05-07T09:36:03;9.2;;;3.8;;
58306;SDS011;44116;50.884;4.768;2023-05-07T09:38:02;8.0;;;3.5;;
58306;SDS011;44116;50.884;4.768;2023-05-07T09:40:02;9.2;;;3.6;;
58306;SDS011;44116;50.884;4.768;2023-05-07T09:42:02;9.3;;;3.5;;
58306;SDS011;44116;50.884;4.768;2023-05-07T09:44:02;7.5;;;3.3;;
58306;SDS011;44116;50.884;4.768;2023-05-07T09:46:03;5.8;;;3.4;;
58306;SDS011;44116;50.884;4.768;2023-05-07T09:48:04;7.8;;;3.6;;
58306;SDS011;44116;50.884;4.768;2023-05-07T09:50:03;9.9;;;4.2;;
58306;SDS011;44116;50.884;4.768;2023-05-07T09:52:02;7.9;;;3.6;;
58306;SDS011;44116;50.884;4.768;2023-05-07T09:54:02;7.7;;;3.7;;
58306;SDS011;44116;50.884;4.768;2023-05-07T09:56:02;6.9;;;3.6;;
58306;SDS011;44116;50.884;4.768;2023-05-07T10:02:01;5.7;;;3.1;;
58306;SDS011;44116;50.884;4.768;2023-05-07T10:04:02;11.6;;;3.8;;
58306;SDS011;44116;50.884;4.768;2023-05-07T10:06:01;7.1;;;3.4;;
58306;SDS011;44116;50.884;4.768;2023-05-07T10:10:01;7.1;;;3.6;;
58306;SDS011;44116;50.884;4.768;2023-05-07T10:12:00;6.7;;;3.5;;
58306;SDS011;44116;50.884;4.768;2023-05-07T10:14:01;6.9;;;3.4;;
58306;SDS011;44116;50.884;4.768;2023-05-07T10:16:00;7.5;;;3.7;;
58306;SDS011;44116;50.884;4.768;2023-05-07T10:18:00;7.1;;;3.1;;
58306;SDS011;44116;50.884;4.768;2023-05-07T10:20:00;8.2;;;3.3;;
58306;SDS011;44116;50.884;4.768;2023-05-07T10:22:04;8.0;;;3.5;;
58306;SDS011;44116;50.884;4.768;2023-05-07T10:26:02;8.0;;;3.3;;
58306;SDS011;44116;50.884;4.768;2023-05-07T10:28:03;6.7;;;3.4;;
58306;SDS011;44116;50.884;4.768;2023-05-07T10:30:10;9.1;;;3.6;;
58306;SDS011;44116;50.884;4.768;2023-05-07T10:32:08;7.0;;;3.3;;
58306;SDS011;44116;50.884;4.768;2023-05-07T10:34:00;8.5;;;2.9;;
58306;SDS011;44116;50.884;4.768;2023-05-07T10:36:00;7.8;;;3.2;;
58306;SDS011;44116;50.884;4.768;2023-05-07T10:37:59;6.2;;;3.4;;
58306;SDS011;44116;50.884;4.768;2023-05-07T10:39:59;8.3;;;2.9;;
58306;SDS011;44116;50.884;4.768;2023-05-07T10:42:07;6.4;;;3.3;;
58306;SDS011;44116;50.884;4.768;2023-05-07T10:43:59;9.9;;;3.1;;
58306;SDS011;44116;50.884;4.768;2023-05-07T10:46:09;7.4;;;3.2;;
58306;SDS011;44116;50.884;4.768;2023-05-07T10:48:07;7.3;;;3.1;;
58306;SDS011;44116;50.884;4.768;2023-05-07T10:52:12;6.9;;;3.3;;
58306;SDS011;44116;50.884;4.768;2023-05-07T10:59:58;8.1;;;4.1;;
58306;SDS011;44116;50.884;4.768;2023-05-07T11:01:59;8.1;;;3.5;;
58306;SDS011;44116;50.884;4.768;2023-05-07T11:04:15;10.0;;;3.7;;
58306;SDS011;44116;50.884;4.768;2023-05-07T11:06:08;8.4;;;3.6;;
58306;SDS011;44116;50.884;4.768;2023-05-07T11:07:58;9.7;;;4.0;;
58306;SDS011;44116;50.884;4.768;2023-05-07T11:10:00;8.8;;;4.1;;
58306;SDS011;44116;50.884;4.768;2023-05-07T11:11:57;7.3;;;3.3;;
58306;SDS011;44116;50.884;4.768;2023-05-07T11:13:57;8.1;;;3.4;;
58306;SDS011;44116;50.884;4.768;2023-05-07T11:17:58;7.4;;;3.1;;
58306;SDS011;44116;50.884;4.768;2023-05-07T11:21:57;8.4;;;3.4;;
58306;SDS011;44116;50.884;4.768;2023-05-07T11:23:59;8.6;;;3.1;;
58306;SDS011;44116;50.884;4.768;2023-05-07T11:25:59;7.7;;;2.9;;
58306;SDS011;44116;50.884;4.768;2023-05-07T11:28:04;7.0;;;2.7;;
58306;SDS011;44116;50.884;4.768;2023-05-07T11:29:57;7.7;;;2.9;;
58306;SDS011;44116;50.884;4.768;2023-05-07T11:31:57;8.7;;;3.0;;
58306;SDS011;44116;50.884;4.768;2023-05-07T11:33:57;8.3;;;3.5;;
58306;SDS011;44116;50.884;4.768;2023-05-07T11:35:58;8.5;;;3.4;;
58306;SDS011;44116;50.884;4.768;2023-05-07T11:40:02;8.5;;;3.8;;
58306;SDS011;44116;50.884;4.768;2023-05-07T11:41:57;7.9;;;3.7;;
58306;SDS011;44116;50.884;4.768;2023-05-07T11:43:57;10.8;;;4.1;;
58306;SDS011;44116;50.884;4.768;2023-05-07T11:46:05;7.8;;;3.4;;
58306;SDS011;44116;50.884;4.768;2023-05-07T11:47:56;7.3;;;3.5;;
58306;SDS011;44116;50.884;4.768;2023-05-07T11:49:56;7.7;;;3.6;;
58306;SDS011;44116;50.884;4.768;2023-05-07T11:51:56;7.1;;;3.5;;
58306;SDS011;44116;50.884;4.768;2023-05-07T11:53:56;7.6;;;3.3;;
58306;SDS011;44116;50.884;4.768;2023-05-07T11:57:56;9.6;;;3.5;;
58306;SDS011;44116;50.884;4.768;2023-05-07T12:01:37;8.4;;;3.1;;
58306;SDS011;44116;50.884;4.768;2023-05-07T12:01:56;5.7;;;2.9;;
58306;SDS011;44116;50.884;4.768;2023-05-07T12:03:55;6.5;;;2.8;;
58306;SDS011;44116;50.884;4.768;2023-05-07T12:07:56;6.3;;;2.5;;
58306;SDS011;44116;50.884;4.768;2023-05-07T12:11:55;9.7;;;2.8;;
58306;SDS011;44116;50.884;4.768;2023-05-07T12:13:55;7.8;;;2.2;;
58306;SDS011;44116;50.884;4.768;2023-05-07T12:15:56;6.6;;;2.3;;
58306;SDS011;44116;50.884;4.768;2023-05-07T12:17:55;6.9;;;2.2;;
58306;SDS011;44116;50.884;4.768;2023-05-07T12:19:55;6.5;;;2.3;;
58306;SDS011;44116;50.884;4.768;2023-05-07T12:21:55;7.3;;;2.2;;
58306;SDS011;44116;50.884;4.768;2023-05-07T12:23:56;4.6;;;1.9;;
58306;SDS011;44116;50.884;4.768;2023-05-07T12:25:55;6.0;;;2.0;;
58306;SDS011;44116;50.884;4.768;2023-05-07T12:27:55;6.9;;;2.3;;
58306;SDS011;44116;50.884;4.768;2023-05-07T12:29:57;8.1;;;3.0;;
58306;SDS011;44116;50.884;4.768;2023-05-07T12:31:55;7.1;;;2.5;;
58306;SDS011;44116;50.884;4.768;2023-05-07T12:33:55;5.6;;;2.1;;
58306;SDS011;44116;50.884;4.768;2023-05-07T12:35:55;6.4;;;2.2;;
58306;SDS011;44116;50.884;4.768;2023-05-07T12:37:55;4.9;;;1.9;;
58306;SDS011;44116;50.884;4.768;2023-05-07T12:40:05;6.1;;;2.1;;
58306;SDS011;44116;50.884;4.768;2023-05-07T12:41:55;7.0;;;2.4;;
58306;SDS011;44116;50.884;4.768;2023-05-07T12:43:56;7.1;;;2.2;;
58306;SDS011;44116;50.884;4.768;2023-05-07T12:45:56;7.3;;;2.3;;
58306;SDS011;44116;50.884;4.768;2023-05-07T12:47:54;5.4;;;1.9;;
58306;SDS011;44116;50.884;4.768;2023-05-07T12:49:54;5.3;;;1.7;;
58306;SDS011;44116;50.884;4.768;2023-05-07T12:51:54;4.9;;;1.9;;
58306;SDS011;44116;50.884;4.768;2023-05-07T12:53:56;5.2;;;1.7;;
58306;SDS011;44116;50.884;4.768;2023-05-07T12:55:56;5.6;;;1.6;;
58306;SDS011;44116;50.884;4.768;2023-05-07T13:01:54;5.2;;;1.7;;
58306;SDS011;44116;50.884;4.768;2023-05-07T13:03:54;4.8;;;1.8;;
58306;SDS011;44116;50.884;4.768;2023-05-07T13:05:55;3.7;;;1.6;;
58306;SDS011;44116;50.884;4.768;2023-05-07T13:07:54;6.1;;;1.9;;
58306;SDS011;44116;50.884;4.768;2023-05-07T13:11:53;6.1;;;1.8;;
58306;SDS011;44116;50.884;4.768;2023-05-07T13:13:53;3.4;;;1.4;;
58306;SDS011;44116;50.884;4.768;2023-05-07T13:15:53;5.1;;;1.9;;
58306;SDS011;44116;50.884;4.768;2023-05-07T13:17:53;5.1;;;1.8;;
58306;SDS011;44116;50.884;4.768;2023-05-07T13:19:53;4.2;;;1.6;;
58306;SDS011;44116;50.884;4.768;2023-05-07T13:21:53;4.4;;;1.9;;
58306;SDS011;44116;50.884;4.768;2023-05-07T13:23:53;4.2;;;1.6;;
58306;SDS011;44116;50.884;4.768;2023-05-07T13:25:53;3.8;;;1.5;;
58306;SDS011;44116;50.884;4.768;2023-05-07T13:27:53;4.4;;;1.7;;
58306;SDS011;44116;50.884;4.768;2023-05-07T13:29:53;4.0;;;1.6;;
58306;SDS011;44116;50.884;4.768;2023-05-07T13:31:53;4.2;;;1.9;;
58306;SDS011;44116;50.884;4.768;2023-05-07T13:33:53;3.7;;;1.8;;
58306;SDS011;44116;50.884;4.768;2023-05-07T13:35:53;4.8;;;2.0;;
58306;SDS011;44116;50.884;4.768;2023-05-07T13:37:53;6.8;;;1.9;;
58306;SDS011;44116;50.884;4.768;2023-05-07T13:39:52;4.6;;;2.0;;
58306;SDS011;44116;50.884;4.768;2023-05-07T13:41:52;7.4;;;2.3;;
58306;SDS011;44116;50.884;4.768;2023-05-07T13:43:52;6.2;;;2.1;;
58306;SDS011;44116;50.884;4.768;2023-05-07T13:45:52;4.4;;;1.9;;
58306;SDS011;44116;50.884;4.768;2023-05-07T13:47:52;5.0;;;2.1;;
58306;SDS011;44116;50.884;4.768;2023-05-07T13:49:52;4.0;;;1.7;;
58306;SDS011;44116;50.884;4.768;2023-05-07T13:51:52;4.1;;;2.0;;
58306;SDS011;44116;50.884;4.768;2023-05-07T13:53:52;3.9;;;1.9;;
58306;SDS011;44116;50.884;4.768;2023-05-07T13:55:52;2.9;;;1.7;;